Woodburn, Mississippi
Current Conditions -  °F | °C
As of 3:53 AM on Thursday 18 Dec 2014 (Local Time) from KGLH Reporting Station
Moderate Rain Moderate Rain  
Wind Chill: 36°   Ceiling: 5500
Heat Index: 41°   Visibility: 3mi
Dew Point: 38°   Wind: 8mph
Humidity: 89%   Direction: 70°ENE
Pressure: 30.21"   Gusts: NA
Location:  33.4825°N, 90.6856°W
Report Text: KGLH 180953Z AUTO 07007KT 3SM RA BR OVC055 05/03 A3021 RMK AO2 SLP239 P0006 T00500033
Loading
Personal Weather Stations






























Interactive Weather Map New forecast layout! Learn more

10-Day Weather Forecast

Advertisements
Track Severe Weather on mobile